createdAt,value
2023-01-17T00:00:37.755Z,1.71
2023-01-17T00:03:04.196Z,1.82
2023-01-17T04:08:52.899Z,1.01
2023-01-17T04:11:19.261Z,0.83
2023-01-17T04:13:45.649Z,0.70
2023-01-17T04:16:12.033Z,0.77
2023-01-17T04:18:38.407Z,0.66
2023-01-17T04:21:04.806Z,0.64
2023-01-17T04:23:31.173Z,0.69
2023-01-17T04:25:57.540Z,0.64
2023-01-17T04:28:23.908Z,0.72
2023-01-17T04:30:50.296Z,0.71
2023-01-17T04:33:16.692Z,0.74
2023-01-17T04:35:43.076Z,0.69
2023-01-17T04:38:09.446Z,0.63
2023-01-17T04:40:35.834Z,0.65
2023-01-17T04:43:02.229Z,0.69
2023-01-17T04:45:28.611Z,0.67
2023-01-17T04:47:54.982Z,0.63
2023-01-17T04:50:21.340Z,0.63
2023-01-17T04:52:47.724Z,0.57
2023-01-17T04:55:14.096Z,0.71
2023-01-17T04:57:40.468Z,0.76
2023-01-17T05:00:06.845Z,0.71
2023-01-17T05:02:33.306Z,0.52
2023-01-17T05:04:59.739Z,0.63
2023-01-17T05:07:26.107Z,0.70
2023-01-17T05:09:52.484Z,0.69
2023-01-17T05:12:18.842Z,0.61
2023-01-17T05:14:45.220Z,0.66
2023-01-17T05:17:11.615Z,0.61
2023-01-17T05:19:38.010Z,0.59
2023-01-17T05:22:04.434Z,0.63
2023-01-17T05:24:30.817Z,0.57
2023-01-17T05:26:57.179Z,0.65
2023-01-17T05:29:23.560Z,0.64
2023-01-17T05:31:49.968Z,0.52
2023-01-17T05:34:16.331Z,0.56
2023-01-17T05:36:42.718Z,0.62
2023-01-17T05:39:09.092Z,0.76
2023-01-17T05:41:35.471Z,0.71
2023-01-17T05:44:01.876Z,0.47
2023-01-17T05:46:28.362Z,0.57
2023-01-17T05:48:54.773Z,0.79
2023-01-17T05:51:21.152Z,0.81
2023-01-17T05:53:47.539Z,0.74
2023-01-17T05:56:13.941Z,0.75
2023-01-17T05:58:40.307Z,0.68
2023-01-17T06:01:06.731Z,0.75
2023-01-17T06:03:33.137Z,0.76
2023-01-17T06:05:59.524Z,0.78
2023-01-17T06:08:25.924Z,0.80
2023-01-17T06:10:52.420Z,0.92
2023-01-17T06:13:18.786Z,0.67
2023-01-17T06:15:45.178Z,0.75
2023-01-17T06:18:11.606Z,0.81
2023-01-17T06:20:38.021Z,0.74
2023-01-17T06:23:04.522Z,0.69
2023-01-17T06:25:30.931Z,0.63
2023-01-17T06:27:57.304Z,0.72
2023-01-17T06:30:23.693Z,0.71
2023-01-17T06:32:50.047Z,0.66
2023-01-17T06:35:16.420Z,0.72
2023-01-17T06:37:42.790Z,0.64
2023-01-17T06:40:09.165Z,0.78
2023-01-17T06:42:35.559Z,0.74
2023-01-17T06:45:01.958Z,0.61
2023-01-17T06:47:28.343Z,0.61
2023-01-17T06:49:54.749Z,0.73
2023-01-17T06:52:21.127Z,0.75
2023-01-17T06:54:47.510Z,0.68
2023-01-17T06:57:13.874Z,0.68
2023-01-17T06:59:40.238Z,0.62
2023-01-17T07:02:06.629Z,0.68
2023-01-17T07:04:32.988Z,0.58
2023-01-17T07:06:59.365Z,0.63
2023-01-17T07:09:25.769Z,0.64
2023-01-17T07:11:52.136Z,0.63
2023-01-17T07:14:18.501Z,0.60
2023-01-17T07:16:44.876Z,0.60
2023-01-17T07:19:11.273Z,0.55
2023-01-17T07:21:37.652Z,0.53
2023-01-17T07:24:04.014Z,0.64
2023-01-17T07:26:30.414Z,0.49
2023-01-17T07:28:56.792Z,0.62
2023-01-17T07:31:23.254Z,0.65
2023-01-17T07:33:49.636Z,0.53
2023-01-17T07:36:16.048Z,0.60
2023-01-17T07:38:42.417Z,0.51
2023-01-17T07:41:10.960Z,0.47
2023-01-17T07:43:37.492Z,0.46
2023-01-17T07:46:03.885Z,0.41
2023-01-17T07:48:30.266Z,0.53
2023-01-17T07:50:56.655Z,0.57
2023-01-17T07:53:23.064Z,0.48
2023-01-17T07:55:49.471Z,0.48
2023-01-17T07:58:15.853Z,0.50
2023-01-17T08:00:42.236Z,0.48
2023-01-17T08:03:08.636Z,0.59
2023-01-17T08:05:35.013Z,0.42
2023-01-17T08:08:01.381Z,0.46
2023-01-17T08:10:27.777Z,0.47
2023-01-17T08:12:54.137Z,0.62
2023-01-17T08:15:20.525Z,0.59
2023-01-17T08:17:46.909Z,0.60
2023-01-17T08:20:13.310Z,0.69
2023-01-17T08:22:39.695Z,0.76
2023-01-17T08:25:06.071Z,1.02
2023-01-17T08:27:33.423Z,0.84
2023-01-17T08:30:00.898Z,0.90
2023-01-17T08:32:27.266Z,0.99
2023-01-17T08:34:53.697Z,1.16
2023-01-17T08:37:20.086Z,1.53
2023-01-17T08:39:46.466Z,1.39
2023-01-17T08:42:12.858Z,1.61
2023-01-17T08:44:39.248Z,1.75
2023-01-17T08:47:05.638Z,1.85
2023-01-17T08:49:32.033Z,2.22
2023-01-17T08:51:58.416Z,2.47
2023-01-17T08:54:24.785Z,2.37
2023-01-17T08:56:51.179Z,2.56
2023-01-17T08:59:17.586Z,3.06
2023-01-17T09:01:44.057Z,3.34
2023-01-17T09:04:10.572Z,3.52
2023-01-17T09:06:37.012Z,3.81
2023-01-17T09:09:03.423Z,4.04
2023-01-17T09:11:29.834Z,3.97
2023-01-17T09:13:56.228Z,3.99
2023-01-17T09:16:22.718Z,4.20
2023-01-17T09:18:49.120Z,4.55
2023-01-17T09:21:15.520Z,5.02
2023-01-17T09:23:41.945Z,4.67
2023-01-17T09:26:08.328Z,4.95
2023-01-17T09:28:34.734Z,5.18
2023-01-17T09:31:01.120Z,5.26
2023-01-17T09:33:27.501Z,5.75
2023-01-17T09:35:53.892Z,5.70
2023-01-17T09:38:20.266Z,5.48
2023-01-17T09:40:46.663Z,5.43
2023-01-17T09:43:13.049Z,5.55
2023-01-17T09:45:39.480Z,6.10
2023-01-17T09:48:05.892Z,5.88
2023-01-17T09:50:32.309Z,5.99
2023-01-17T09:52:58.684Z,6.61
2023-01-17T09:55:25.081Z,6.25
2023-01-17T09:57:51.474Z,6.24
2023-01-17T10:00:17.880Z,6.34
2023-01-17T10:02:44.535Z,6.28
2023-01-17T10:05:11.065Z,6.76
2023-01-17T10:07:37.462Z,6.57
2023-01-17T10:10:03.871Z,6.16
2023-01-17T10:12:30.274Z,6.47
2023-01-17T10:14:56.649Z,6.55
2023-01-17T10:17:23.041Z,6.85
2023-01-17T10:19:49.420Z,6.72
2023-01-17T10:22:15.795Z,6.44
2023-01-17T10:24:42.188Z,6.86
2023-01-17T10:27:08.588Z,6.92
2023-01-17T10:29:35.111Z,6.36
2023-01-17T10:32:01.494Z,6.91
2023-01-17T10:34:27.884Z,6.87
2023-01-17T10:36:54.283Z,7.15
2023-01-17T10:39:20.659Z,7.12
2023-01-17T10:41:47.024Z,7.12
2023-01-17T10:44:13.421Z,8.07
2023-01-17T10:46:39.834Z,8.00
2023-01-17T10:49:06.239Z,8.08
2023-01-17T10:51:32.621Z,8.68
2023-01-17T10:54:01.642Z,8.57
2023-01-17T10:56:28.205Z,9.05
2023-01-17T10:58:54.608Z,9.42
2023-01-17T11:01:21.140Z,9.94
2023-01-17T11:03:47.581Z,10.37
2023-01-17T11:06:13.978Z,10.67
2023-01-17T11:08:40.354Z,11.18
2023-01-17T11:11:06.745Z,11.39
2023-01-17T11:13:33.123Z,12.53
2023-01-17T11:15:59.568Z,12.63
2023-01-17T11:18:25.984Z,13.23
2023-01-17T11:20:52.369Z,13.70
2023-01-17T11:23:18.769Z,14.25
2023-01-17T11:25:45.175Z,14.09
2023-01-17T11:28:11.563Z,15.01
2023-01-17T11:30:37.965Z,15.12
2023-01-17T11:33:04.368Z,16.35
2023-01-17T11:35:30.798Z,17.20
2023-01-17T11:37:57.213Z,17.69
2023-01-17T11:40:23.622Z,18.96
2023-01-17T11:42:50.035Z,20.93
2023-01-17T11:45:16.442Z,20.92
2023-01-17T11:47:42.830Z,22.43
2023-01-17T11:50:09.233Z,23.85
2023-01-17T11:52:35.769Z,24.80
2023-01-17T11:55:02.195Z,26.30
2023-01-17T11:57:28.577Z,27.66
2023-01-17T11:59:54.959Z,29.80
2023-01-17T12:02:21.346Z,31.79
2023-01-17T12:04:47.792Z,32.93
2023-01-17T12:07:14.229Z,33.43
2023-01-17T12:09:40.627Z,34.89
2023-01-17T12:12:07.037Z,35.81
2023-01-17T12:14:33.432Z,36.95
2023-01-17T12:16:59.823Z,38.37
2023-01-17T12:19:26.198Z,39.58
2023-01-17T12:21:52.608Z,41.15
2023-01-17T12:24:19.019Z,43.31
2023-01-17T12:26:45.422Z,46.42
2023-01-17T12:29:11.827Z,56.80
2023-01-17T12:31:38.253Z,60.30
2023-01-17T12:34:06.463Z,61.46
2023-01-17T12:36:34.262Z,61.67
2023-01-17T12:39:00.690Z,61.92
2023-01-17T12:41:27.102Z,62.69
2023-01-17T12:43:53.501Z,61.28
2023-01-17T12:46:19.919Z,63.09
2023-01-17T12:48:46.317Z,63.58
2023-01-17T12:51:12.717Z,64.82
2023-01-17T12:53:39.121Z,64.54
2023-01-17T12:56:05.519Z,64.78
2023-01-17T12:58:31.929Z,64.03
2023-01-17T13:00:58.426Z,64.17
2023-01-17T13:03:24.854Z,63.16
2023-01-17T13:05:51.255Z,61.33
2023-01-17T13:08:17.625Z,63.04
2023-01-17T13:10:44.043Z,61.92
2023-01-17T13:13:10.421Z,60.92
2023-01-17T13:15:36.814Z,60.61
2023-01-17T13:18:03.231Z,60.84
2023-01-17T13:20:29.613Z,60.76
2023-01-17T13:22:55.994Z,59.25
2023-01-17T13:25:22.430Z,58.60
2023-01-17T13:27:48.837Z,57.84
2023-01-17T13:30:15.242Z,56.56
2023-01-17T13:32:41.642Z,56.13
2023-01-17T13:35:08.083Z,56.09
2023-01-17T13:37:34.489Z,55.69
2023-01-17T13:40:00.871Z,55.20
2023-01-17T13:42:27.274Z,53.37
2023-01-17T13:44:53.687Z,53.42
2023-01-17T13:47:20.438Z,52.10
2023-01-17T13:49:47.791Z,51.46
2023-01-17T13:52:14.213Z,52.58
2023-01-17T13:54:40.617Z,51.94
2023-01-17T13:57:07.001Z,51.02
2023-01-17T13:59:33.427Z,49.68
2023-01-17T14:01:59.832Z,49.48
2023-01-17T14:04:26.217Z,49.43
2023-01-17T14:06:52.617Z,48.20
2023-01-17T14:09:19.024Z,47.94
2023-01-17T14:11:45.417Z,46.73
2023-01-17T14:14:11.951Z,47.02
2023-01-17T14:16:38.398Z,46.65
2023-01-17T14:19:04.821Z,45.00
2023-01-17T14:21:31.215Z,45.67
2023-01-17T14:23:57.610Z,45.15
2023-01-17T14:26:24.152Z,44.32
2023-01-17T14:28:50.557Z,44.06
2023-01-17T14:31:16.997Z,44.18
2023-01-17T14:33:43.408Z,43.60
2023-01-17T14:36:09.809Z,43.48
2023-01-17T14:38:36.220Z,41.71
2023-01-17T14:41:02.620Z,41.61
2023-01-17T14:43:29.039Z,41.08
2023-01-17T14:45:55.500Z,41.25
2023-01-17T14:48:21.986Z,40.31
2023-01-17T14:50:48.404Z,40.42
2023-01-17T14:53:14.859Z,39.95
2023-01-17T14:55:41.264Z,38.99
2023-01-17T14:58:07.658Z,38.21
2023-01-17T15:00:34.039Z,39.02
2023-01-17T15:03:00.461Z,37.58
2023-01-17T15:05:26.882Z,34.84
2023-01-17T15:07:53.308Z,33.83
2023-01-17T15:10:19.701Z,34.33
2023-01-17T15:12:46.111Z,34.29
2023-01-17T15:15:12.520Z,34.55
2023-01-17T15:17:38.918Z,34.30
2023-01-17T15:20:05.298Z,34.01
2023-01-17T15:22:31.707Z,34.00
2023-01-17T15:24:58.120Z,34.15
2023-01-17T15:27:24.517Z,32.87
2023-01-17T15:29:50.905Z,33.20
2023-01-17T15:32:17.301Z,32.62
2023-01-17T15:34:43.704Z,32.76
2023-01-17T15:37:10.089Z,33.01
2023-01-17T15:39:36.493Z,31.91
2023-01-17T15:42:02.913Z,31.49
2023-01-17T15:44:36.119Z,31.68
2023-01-17T15:47:12.991Z,30.57
2023-01-17T15:49:39.393Z,31.06
2023-01-17T15:52:05.769Z,30.37
2023-01-17T15:54:32.158Z,29.85
2023-01-17T15:56:58.539Z,30.25
2023-01-17T15:59:24.933Z,29.12
2023-01-17T16:01:51.373Z,28.72
2023-01-17T16:04:17.854Z,28.26
2023-01-17T16:06:44.245Z,28.05
2023-01-17T16:09:10.666Z,28.09
2023-01-17T16:11:37.069Z,28.21
2023-01-17T16:14:03.444Z,27.16
2023-01-17T16:16:29.950Z,26.88
2023-01-17T16:18:56.395Z,26.65
2023-01-17T16:21:22.804Z,26.66
2023-01-17T16:23:49.184Z,26.40
2023-01-17T16:26:15.585Z,26.16
2023-01-17T16:28:41.977Z,26.14
2023-01-17T16:31:08.428Z,25.87
2023-01-17T16:33:34.846Z,25.33
2023-01-17T16:36:01.255Z,25.52
2023-01-17T16:38:27.714Z,25.24
2023-01-17T16:40:54.123Z,24.67
2023-01-17T16:43:20.526Z,24.50
2023-01-17T16:45:46.914Z,24.19
2023-01-17T16:48:13.326Z,24.56
2023-01-17T16:50:39.755Z,24.14
2023-01-17T16:53:06.159Z,24.01
2023-01-17T16:55:32.551Z,23.25
2023-01-17T16:57:58.939Z,22.54
2023-01-17T17:00:25.325Z,22.64
2023-01-17T17:02:51.799Z,22.48
2023-01-17T17:05:18.217Z,22.00
2023-01-17T17:07:44.589Z,21.91
2023-01-17T17:10:11.026Z,21.89
2023-01-17T17:12:37.404Z,21.73
2023-01-17T17:15:03.782Z,20.80
2023-01-17T17:17:30.226Z,20.97
2023-01-17T17:19:56.625Z,20.74
2023-01-17T17:22:23.030Z,20.55
2023-01-17T17:24:49.469Z,20.50
2023-01-17T17:27:15.865Z,20.53
2023-01-17T17:29:42.279Z,20.26
2023-01-17T17:32:08.669Z,19.10
2023-01-17T17:34:35.053Z,19.56
2023-01-17T17:37:03.728Z,19.07
2023-01-17T17:39:30.290Z,19.81
2023-01-17T17:41:56.685Z,19.44
2023-01-17T17:44:23.062Z,19.37
2023-01-17T17:46:49.563Z,19.68
2023-01-17T17:49:15.952Z,19.25
2023-01-17T17:51:42.334Z,18.71
2023-01-17T17:54:08.729Z,18.49
2023-01-17T17:56:35.149Z,18.70
2023-01-17T17:59:01.554Z,17.77
2023-01-17T18:01:28.071Z,18.27
2023-01-17T18:03:54.503Z,17.70
